| time (UTC) | temp C | wind direction | speed KPH | gust KPH | rain 1hr cm | rain 24hr cm | rain mn cm | humidity % | barometer mb |
| 20260507121256 | 17 | 222 | 8.0 | 8.0 | 0.00 | 0.00 | 0.48 | 68 | 1012.4 |
| 20260507120128 | 17 | 192 | 6.4 | 8.0 | 0.05 | 0.00 | 0.48 | 76 | 1012.4 |
| 20260507115001 | 16 | 204 | 3.2 | 8.0 | 0.05 | 0.00 | 0.48 | 81 | 1012.6 |
| 20260507113834 | 15 | 295 | 3.2 | 6.4 | 0.05 | 0.00 | 0.48 | 94 | 1012.5 |
| 20260507112617 | 15 | 288 | 4.8 | 8.0 | 0.08 | 0.00 | 0.48 | 92 | 1012.5 |
| 20260507111436 | 16 | 282 | 4.8 | 4.8 | 0.08 | 0.00 | 0.48 | 89 | 1012.6 |
| 20260507110308 | 16 | 291 | 6.4 | 6.4 | 0.23 | 0.00 | 0.48 | 81 | 1012.7 |
| 20260507105141 | 16 | 315 | 3.2 | 6.4 | 0.28 | 0.00 | 0.48 | 83 | 1012.8 |
| 20260507104014 | 16 | 318 | 3.2 | 4.8 | 0.43 | 0.00 | 0.48 | 93 | 1012.9 |
| 20260507102757 | 14 | 290 | 3.2 | 8.0 | 0.48 | 0.00 | 0.48 | 92 | 1012.9 |
| 20260507101616 | 13 | 311 | 4.8 | 8.0 | 0.48 | 0.00 | 0.48 | 97 | 1013.0 |
| 20260507100449 | 13 | 306 | 6.4 | 6.4 | 0.36 | 0.00 | 0.36 | 96 | 1013.1 |
| 20260507095320 | 13 | 318 | 8.0 | 11.3 | 0.23 | 0.00 | 0.23 | 94 | 1013.1 |
| 20260507094152 | 15 | 306 | 12.9 | 14.5 | 0.13 | 0.00 | 0.13 | 89 | 1013.1 |
| 20260507092935 | 17 | 216 | 4.8 | 8.0 | 0.00 | 0.00 | 0.00 | 74 | 1013.0 |
| 20260507091758 | 17 | 121 | 12.9 | 14.5 | 0.00 | 0.00 | 0.00 | 72 | 1012.6 |
| 20260507090627 | 17 | 192 | 9.7 | 11.3 | 0.00 | 0.00 | 0.00 | 72 | 1012.7 |
| 20260507085459 | 16 | 138 | 6.4 | 12.9 | 0.00 | 0.00 | 0.00 | 77 | 1012.7 |
| 20260507084332 | 16 | 126 | 8.0 | 11.3 | 0.00 | 0.00 | 0.00 | 73 | 1012.7 |
| 20260507083115 | 16 | 168 | 6.4 | 11.3 | 0.00 | 0.00 | 0.00 | 76 | 1012.7 |
| 20260507081934 | 16 | 126 | 3.2 | 11.3 | 0.00 | 0.00 | 0.00 | 78 | 1012.6 |
| 20260507080807 | 15 | 168 | 6.4 | 14.5 | 0.00 | 0.00 | 0.00 | 80 | 1012.6 |
| 20260507075639 | 15 | 90 | 3.2 | 6.4 | 0.00 | 0.00 | 0.00 | 83 | 1012.6 |
| 20260507074512 | 15 | 192 | 3.2 | 3.2 | 0.00 | 0.00 | 0.00 | 83 | 1012.6 |
| 20260507073255 | 15 | 104 | 3.2 | 8.0 | 0.00 | 0.00 | 0.00 | 84 | 1012.6 |
| 20260507072114 | 15 | 120 | 3.2 | 11.3 | 0.00 | 0.00 | 0.00 | 80 | 1012.5 |
| 20260507070947 | 16 | 108 | 11.3 | 11.3 | 0.00 | 0.00 | 0.00 | 81 | 1012.4 |
| 20260507065819 | 16 | 96 | 6.4 | 8.0 | 0.00 | 0.00 | 0.00 | 77 | 1012.3 |
| 20260507064651 | 16 | 294 | 3.2 | 4.8 | 0.00 | 0.00 | 0.00 | 77 | 1012.3 |
| 20260507063435 | 15 | 258 | 3.2 | 3.2 | 0.00 | 0.00 | 0.00 | 82 | 1012.2 |
| 20260507062254 | 14 | 258 | 0.0 | 3.2 | 0.00 | 0.00 | 0.00 | 86 | 1012.1 |
| 20260507061127 | 13 | 258 | 0.0 | 3.2 | 0.00 | 0.00 | 0.00 | 92 | 1012.1 |
| 20260507055959 | 13 | 258 | 3.2 | 3.2 | 0.00 | 0.00 | 0.00 | 95 | 1012.1 |
| 20260507054831 | 13 | 180 | 4.8 | 4.8 | 0.00 | 0.00 | 0.00 | 90 | 1011.9 |
| 20260507053615 | 13 | 168 | 3.2 | 6.4 | 0.00 | 0.00 | 0.00 | 86 | 1011.7 |
| 20260507052434 | 13 | 18 | 4.8 | 8.0 | 0.00 | 0.00 | 0.00 | 90 | 1011.5 |
| 20260507051306 | 12 | 289 | 3.2 | 11.3 | 0.00 | 0.00 | 0.00 | 87 | 1011.4 |
| 20260507050138 | 12 | 296 | 3.2 | 12.9 | 0.00 | 0.00 | 0.00 | 91 | 1011.4 |
| 20260507045011 | 12 | 336 | 4.8 | 8.0 | 0.00 | 0.00 | 0.00 | 90 | 1011.1 |
| 20260507043754 | 11 | 294 | 3.2 | 9.7 | 0.00 | 0.00 | 0.00 | 91 | 1010.9 |
| 20260507042613 | 12 | 314 | 4.8 | 11.3 | 0.00 | 0.00 | 0.00 | 93 | 1011.0 |
| 20260507041446 | 12 | 348 | 8.0 | 11.3 | 0.00 | 0.00 | 0.00 | 92 | 1011.0 |
| 20260507040318 | 12 | 306 | 9.7 | 9.7 | 0.00 | 0.00 | 0.00 | 94 | 1011.0 |
| 20260507035151 | 12 | 348 | 4.8 | 9.7 | 0.00 | 0.00 | 0.00 | 94 | 1011.1 |
| 20260507033934 | 11 | 296 | 4.8 | 8.0 | 0.00 | 0.00 | 0.00 | 98 | 1011.0 |
| 20260507032754 | 11 | 289 | 8.0 | 8.0 | 0.00 | 0.00 | 0.00 | 95 | 1010.9 |
| 20260507031626 | 11 | 321 | 3.2 | 3.2 | 0.00 | 0.00 | 0.00 | 99 | 1010.9 |
| 20260507030500 | 11 | 318 | 3.2 | 4.8 | 0.00 | 0.00 | 0.00 | 99 | 1010.9 |
| 20260507025331 | 11 | 306 | 6.4 | 6.4 | 0.00 | 0.00 | 0.00 | 98 | 1010.9 |
| 20260507024115 | 11 | 306 | 3.2 | 6.4 | 0.00 | 0.00 | 0.00 | 99 | 1010.8 |
| 20260507022933 | 11 | 306 | 4.8 | 4.8 | 0.00 | 0.00 | 0.00 | 99 | 1010.9 |
| 20260507021805 | 12 | 314 | 6.4 | 6.4 | 0.00 | 0.00 | 0.00 | 99 | 1010.8 |
| 20260507020638 | 12 | 301 | 6.4 | 9.7 | 0.00 | 0.00 | 0.00 | 97 | 1010.9 |
| 20260507015510 | 12 | 318 | 6.4 | 6.4 | 0.00 | 0.00 | 0.00 | 98 | 1010.8 |
| 20260507014254 | 12 | 341 | 8.0 | 8.0 | 0.00 | 0.00 | 0.00 | 98 | 1010.9 |
| 20260507013112 | 12 | 322 | 6.4 | 8.0 | 0.00 | 0.00 | 0.00 | 97 | 1010.9 |
| 20260507011945 | 12 | 318 | 3.2 | 6.4 | 0.00 | 0.00 | 0.00 | 99 | 1010.8 |
| 20260507010817 | 12 | 306 | 4.8 | 6.4 | 0.00 | 0.00 | 0.00 | 99 | 1010.9 |
| 20260507005650 | 12 | 303 | 3.2 | 8.0 | 0.00 | 0.00 | 0.00 | 99 | 1010.9 |
| 20260507004433 | 12 | 300 | 3.2 | 4.8 | 0.00 | 0.00 | 0.00 | 99 | 1010.9 |
| 20260507003252 | 12 | 300 | 3.2 | 6.4 | 0.00 | 0.00 | 0.00 | 99 | 1010.9 |
| 20260507002125 | 12 | 318 | 4.8 | 4.8 | 0.00 | 0.00 | 0.00 | 99 | 1010.9 |
| 20260507000957 | 12 | 321 | 3.2 | 6.4 | 0.00 | 0.00 | 0.00 | 99 | 1011.0 |
| 20260506235830 | 12 | 318 | 3.2 | 6.4 | 0.00 | 0.00 | 0.00 | 99 | 1011.0 |
| 20260506234613 | 12 | 306 | 4.8 | 4.8 | 0.08 | 0.00 | 0.00 | 99 | 1011.0 |
| 20260506233433 | 12 | 306 | 4.8 | 4.8 | 0.08 | 0.00 | 0.00 | 99 | 1011.0 |
| 20260506232306 | 12 | 306 | 3.2 | 3.2 | 0.08 | 0.00 | 0.00 | 99 | 1011.1 |
| 20260506231137 | 12 | 306 | 3.2 | 4.8 | 0.13 | 0.00 | 0.00 | 99 | 1011.2 |
| 20260506230009 | 12 | 306 | 4.8 | 4.8 | 0.43 | 0.00 | 0.00 | 99 | 1011.2 |
| 20260506224753 | 12 | 306 | 3.2 | 6.4 | 0.99 | 0.00 | 5.77 | 99 | 1011.2 |
| 20260506223612 | 12 | 300 | 4.8 | 6.4 | 1.04 | 0.00 | 5.77 | 99 | 1011.2 |
| 20260506222444 | 12 | 300 | 4.8 | 4.8 | 1.04 | 0.00 | 5.77 | 99 | 1011.1 |
| 20260506221317 | 12 | 313 | 4.8 | 6.4 | 1.04 | 0.00 | 5.77 | 99 | 1011.1 |
| 20260506220149 | 12 | 313 | 6.4 | 6.4 | 0.71 | 0.00 | 5.46 | 99 | 1011.2 |
| 20260506214932 | 12 | 314 | 3.2 | 3.2 | 0.13 | 0.00 | 4.88 | 99 | 1011.1 |
| 20260506213752 | 12 | 311 | 3.2 | 8.0 | 0.00 | 0.00 | 4.75 | 98 | 1011.0 |
| 20260506212624 | 12 | 12 | 3.2 | 6.4 | 0.00 | 0.00 | 4.75 | 99 | 1011.0 |
| 20260506211457 | 12 | 264 | 3.2 | 3.2 | 0.00 | 0.00 | 4.75 | 99 | 1011.1 |
| 20260506210330 | 12 | 264 | 3.2 | 3.2 | 0.00 | 0.00 | 4.75 | 99 | 1011.1 |
| 20260506205113 | 12 | 264 | 3.2 | 4.8 | 0.00 | 0.00 | 4.75 | 99 | 1010.9 |
| 20260506203932 | 12 | 246 | 3.2 | 4.8 | 0.00 | 0.00 | 4.75 | 99 | 1011.0 |
| 20260506202804 | 12 | 96 | 3.2 | 8.0 | 0.00 | 0.00 | 4.75 | 99 | 1010.9 |
| 20260506201637 | 12 | 246 | 6.4 | 6.4 | 0.00 | 0.00 | 4.75 | 99 | 1010.8 |
| 20260506200509 | 12 | 291 | 4.8 | 6.4 | 0.00 | 0.00 | 4.75 | 99 | 1010.8 |
| 20260506195253 | 12 | 291 | 3.2 | 3.2 | 0.00 | 0.00 | 4.75 | 99 | 1010.7 |
| 20260506194112 | 12 | 291 | 3.2 | 4.8 | 0.00 | 0.00 | 4.75 | 99 | 1010.4 |
| 20260506192944 | 12 | 291 | 4.8 | 4.8 | 0.00 | 0.00 | 4.75 | 99 | 1010.3 |
| 20260506191817 | 12 | 291 | 3.2 | 3.2 | 0.00 | 0.00 | 4.75 | 99 | 1010.3 |
| 20260506190649 | 12 | 291 | 3.2 | 3.2 | 0.05 | 0.00 | 4.75 | 99 | 1010.3 |
| 20260506185433 | 12 | 290 | 3.2 | 3.2 | 0.05 | 0.00 | 4.75 | 99 | 1010.3 |
| 20260506184252 | 13 | 290 | 3.2 | 3.2 | 0.05 | 0.00 | 4.75 | 99 | 1010.2 |
| 20260506183124 | 13 | 278 | 3.2 | 4.8 | 0.05 | 0.00 | 4.75 | 99 | 1010.1 |
| 20260506181957 | 13 | 278 | 3.2 | 3.2 | 0.05 | 0.00 | 4.75 | 99 | 1010.1 |
| 20260506180829 | 13 | 278 | 3.2 | 3.2 | 0.00 | 0.00 | 4.72 | 99 | 1010.1 |
| 20260506175613 | 13 | 278 | 0.0 | 3.2 | 0.00 | 0.00 | 4.72 | 99 | 1010.1 |
| 20260506174431 | 13 | 278 | 3.2 | 3.2 | 0.00 | 0.00 | 4.72 | 99 | 1009.9 |
| 20260506173304 | 13 | 96 | 0.0 | 3.2 | 0.05 | 0.00 | 4.72 | 99 | 1009.8 |
| 20260506172137 | 13 | 96 | 3.2 | 3.2 | 0.05 | 0.00 | 4.72 | 99 | 1009.7 |
| 20260506171009 | 12 | 96 | 3.2 | 3.2 | 0.13 | 0.00 | 4.72 | 99 | 1009.6 |
| 20260506165752 | 13 | 96 | 4.8 | 4.8 | 0.20 | 0.00 | 4.72 | 99 | 1009.6 |
| 20260506164612 | 12 | 102 | 3.2 | 3.2 | 0.41 | 0.00 | 4.72 | 99 | 1009.6 |
| 20260506163444 | 12 | 102 | 0.0 | 3.2 | 0.69 | 0.00 | 4.72 | 99 | 1009.6 |
| 20260506162317 | 12 | 102 | 0.0 | 3.2 | 0.91 | 0.00 | 4.72 | 99 | 1009.4 |
| 20260506161149 | 12 | 102 | 0.0 | 6.4 | 1.04 | 0.00 | 4.67 | 99 | 1009.7 |
| 20260506155932 | 12 | 102 | 3.2 | 6.4 | 0.99 | 0.00 | 4.60 | 99 | 1009.6 |
| 20260506154752 | 13 | 24 | 3.2 | 3.2 | 0.84 | 0.00 | 4.45 | 99 | 1009.6 |
| 20260506153624 | 13 | 24 | 3.2 | 3.2 | 0.48 | 0.00 | 4.09 | 99 | 1009.6 |
| 20260506152457 | 13 | 315 | 0.0 | 3.2 | 0.36 | 0.00 | 3.91 | 99 | 1009.7 |
| 20260506151329 | 13 | 234 | 0.0 | 3.2 | 0.36 | 0.00 | 3.81 | 99 | 1009.7 |
| 20260506150113 | 13 | 234 | 0.0 | 3.2 | 0.33 | 0.00 | 3.63 | 99 | 1009.7 |
| 20260506144931 | 13 | 234 | 0.0 | 4.8 | 0.33 | 0.00 | 3.63 | 99 | 1009.8 |
| 20260506143804 | 13 | 234 | 3.2 | 8.0 | 0.33 | 0.00 | 3.63 | 99 | 1009.9 |
| 20260506142637 | 13 | 174 | 6.4 | 6.4 | 0.23 | 0.00 | 3.56 | 99 | 1010.0 |
| 20260506141509 | 13 | 90 | 4.8 | 8.0 | 0.23 | 0.00 | 3.48 | 99 | 1010.0 |
| 20260506140252 | 13 | 115 | 3.2 | 6.4 | 0.20 | 0.00 | 3.40 | 98 | 1010.2 |
| 20260506135112 | 13 | 54 | 0.0 | 4.8 | 0.20 | 0.00 | 3.33 | 98 | 1010.1 |
| 20260506133944 | 13 | 12 | 3.2 | 6.4 | 0.33 | 0.00 | 3.33 | 98 | 1010.2 |
| 20260506132817 | 13 | 303 | 3.2 | 6.4 | 0.43 | 0.00 | 3.33 | 97 | 1010.3 |
| 20260506131650 | 13 | 246 | 3.2 | 3.2 | 0.76 | 0.00 | 3.33 | 99 | 1010.5 |
| 20260506130433 | 13 | 210 | 3.2 | 6.4 | 0.97 | 0.00 | 3.33 | 99 | 1010.7 |
| 20260506125257 | 13 | 114 | 3.2 | 6.4 | 0.97 | 0.00 | 3.20 | 99 | 1010.7 |
| 20260506124112 | 13 | 318 | 3.2 | 6.4 | 0.97 | 0.00 | 3.12 | 99 | 1010.6 |
| 20260506122945 | 12 | 66 | 3.2 | 3.2 | 0.91 | 0.00 | 3.00 | 99 | 1010.5 |
| 20260506121817 | 12 | 78 | 0.0 | 3.2 | 0.89 | 0.00 | 2.59 | 99 | 1010.5 |